createdAt,value
2018-09-03T00:02:04.974Z,7.63
2018-09-03T00:06:55.874Z,7.60
2018-09-03T00:11:46.873Z,7.37
2018-09-03T00:16:37.794Z,7.33
2018-09-03T00:21:28.730Z,7.43
2018-09-03T00:26:20.360Z,7.53
2018-09-03T00:31:11.262Z,7.60
2018-09-03T00:41:36.024Z,8.10
2018-09-03T00:52:00.628Z,7.70
2018-09-03T00:56:52.262Z,7.57
2018-09-03T01:01:43.166Z,7.53
2018-09-03T01:06:34.083Z,7.60
2018-09-03T01:11:27.188Z,8.43
2018-09-03T01:16:18.079Z,8.20
2018-09-03T01:21:08.964Z,7.80
2018-09-03T01:25:59.856Z,7.30
2018-09-03T01:30:50.786Z,8.30
2018-09-03T01:35:41.686Z,8.70
2018-09-03T01:40:32.576Z,7.50
2018-09-03T01:45:23.474Z,7.77
2018-09-03T01:50:14.380Z,8.73
2018-09-03T01:55:06.997Z,8.60
2018-09-03T01:59:58.417Z,8.37
2018-09-03T02:04:49.791Z,9.07
2018-09-03T02:09:40.695Z,8.70
2018-09-03T02:14:32.477Z,9.47
2018-09-03T02:19:23.375Z,8.60
2018-09-03T02:24:14.304Z,9.50
2018-09-03T02:29:05.827Z,9.43
2018-09-03T02:33:57.626Z,8.47
2018-09-03T02:38:48.665Z,9.93
2018-09-03T02:43:39.568Z,8.50
2018-09-03T02:48:32.012Z,10.30
2018-09-03T02:53:23.353Z,8.87
2018-09-03T02:58:14.253Z,10.10
2018-09-03T03:03:05.581Z,9.23
2018-09-03T03:07:56.515Z,8.60
2018-09-03T03:12:47.557Z,9.30
2018-09-03T03:17:38.484Z,9.60
2018-09-03T03:22:29.375Z,10.33
2018-09-03T03:27:20.753Z,9.30
2018-09-03T03:32:12.391Z,8.30
2018-09-03T03:37:03.283Z,9.03
2018-09-03T03:41:54.961Z,9.77
2018-09-03T03:46:45.868Z,8.83
2018-09-03T03:51:36.772Z,8.93
2018-09-03T03:56:27.681Z,9.50
2018-09-03T04:01:19.821Z,8.67
2018-09-03T04:06:11.479Z,9.03
2018-09-03T04:11:02.441Z,9.67
2018-09-03T04:15:53.357Z,9.07
2018-09-03T04:20:44.292Z,8.93
2018-09-03T04:25:35.220Z,9.20
2018-09-03T04:30:26.141Z,9.90
2018-09-03T04:35:17.132Z,9.07
2018-09-03T04:40:08.899Z,8.87
2018-09-03T04:44:59.861Z,9.50
2018-09-03T04:49:51.514Z,9.17
2018-09-03T04:54:42.496Z,9.00
2018-09-03T04:59:33.415Z,8.53
2018-09-03T05:04:25.760Z,8.40
2018-09-03T05:09:16.664Z,9.47
2018-09-03T05:14:09.160Z,9.37
2018-09-03T05:19:01.909Z,9.93
2018-09-03T05:23:53.960Z,10.17
2018-09-03T05:28:44.860Z,9.20
2018-09-03T05:33:36.642Z,9.37
2018-09-03T05:38:28.355Z,9.50
2018-09-03T05:43:19.698Z,9.07
2018-09-03T05:48:10.512Z,9.47
2018-09-03T05:53:03.311Z,9.60
2018-09-03T05:57:54.526Z,9.20
2018-09-03T06:02:45.488Z,9.10
2018-09-03T06:07:36.392Z,8.20
2018-09-03T06:12:27.325Z,8.47
2018-09-03T06:17:19.805Z,9.17
2018-09-03T06:22:10.703Z,9.17
2018-09-03T06:27:02.659Z,8.73
2018-09-03T06:31:53.564Z,9.33
2018-09-03T06:36:44.471Z,8.50
2018-09-03T06:41:37.662Z,9.00
2018-09-03T06:46:28.576Z,8.80
2018-09-03T06:51:21.696Z,8.77
2018-09-03T06:56:12.603Z,8.87
2018-09-03T07:01:03.493Z,8.20
2018-09-03T07:05:54.407Z,8.63
2018-09-03T07:10:45.331Z,7.83
2018-09-03T07:15:39.361Z,7.40
2018-09-03T07:20:31.961Z,8.00
2018-09-03T07:25:22.980Z,7.90
2018-09-03T07:30:14.611Z,8.17
2018-09-03T07:35:05.580Z,7.90
2018-09-03T07:39:56.472Z,8.07
2018-09-03T07:44:47.409Z,7.80
2018-09-03T07:49:38.359Z,8.17
2018-09-03T07:54:29.276Z,8.73
2018-09-03T07:59:20.201Z,9.67
2018-09-03T08:04:11.106Z,8.30
2018-09-03T08:09:02.033Z,8.70
2018-09-03T08:13:54.724Z,8.53
2018-09-03T08:18:45.623Z,8.53
2018-09-03T08:23:36.517Z,8.90
2018-09-03T08:28:27.516Z,9.47
2018-09-03T08:33:19.209Z,9.30
2018-09-03T08:38:10.853Z,8.80
2018-09-03T08:43:01.793Z,8.60
2018-09-03T08:47:52.688Z,8.93
2018-09-03T08:52:43.617Z,8.97
2018-09-03T08:57:34.557Z,8.73
2018-09-03T09:02:26.193Z,8.30
2018-09-03T09:07:17.116Z,9.23
2018-09-03T09:12:08.094Z,9.20
2018-09-03T09:16:59.001Z,9.43
2018-09-03T09:21:49.884Z,9.60
2018-09-03T09:26:40.800Z,9.00
2018-09-03T09:31:31.751Z,9.83
2018-09-03T09:36:22.640Z,9.73
2018-09-03T09:41:13.553Z,10.60
2018-09-03T09:46:04.450Z,11.63
2018-09-03T09:50:56.097Z,11.20
2018-09-03T09:55:46.993Z,11.60
2018-09-03T10:00:38.684Z,11.00
2018-09-03T10:05:29.613Z,11.07
2018-09-03T10:10:20.522Z,11.13
2018-09-03T10:15:11.452Z,10.43
2018-09-03T10:20:02.364Z,11.00
2018-09-03T10:24:54.044Z,10.57
2018-09-03T10:29:44.932Z,11.13
2018-09-03T10:34:36.645Z,10.57
2018-09-03T10:39:27.553Z,11.23
2018-09-03T10:44:18.440Z,11.90
2018-09-03T10:49:09.338Z,12.53
2018-09-03T10:54:00.232Z,12.60
2018-09-03T10:58:51.145Z,12.33
2018-09-03T11:03:42.781Z,13.10
2018-09-03T11:08:33.688Z,13.10
2018-09-03T11:13:24.584Z,12.90
2018-09-03T11:18:15.493Z,11.70
2018-09-03T11:23:06.459Z,12.97
2018-09-03T11:27:57.351Z,12.43
2018-09-03T11:32:48.287Z,12.83
2018-09-03T11:37:39.190Z,12.43
2018-09-03T11:42:30.077Z,12.30
2018-09-03T11:47:21.021Z,12.27
2018-09-03T11:52:11.931Z,13.13
2018-09-03T11:57:03.564Z,11.90
2018-09-03T12:01:54.504Z,12.03
2018-09-03T12:06:45.457Z,11.73
2018-09-03T12:11:36.324Z,12.07
2018-09-03T12:16:27.216Z,12.30
2018-09-03T12:21:18.145Z,11.40
2018-09-03T12:26:09.786Z,12.10
2018-09-03T12:31:00.685Z,12.57
2018-09-03T12:35:52.340Z,11.63
2018-09-03T12:40:43.224Z,11.33
2018-09-03T12:45:34.852Z,12.30
2018-09-03T12:50:25.742Z,11.50
2018-09-03T12:55:16.651Z,10.73
2018-09-03T13:00:08.833Z,10.70
2018-09-03T13:05:00.117Z,9.97
2018-09-03T13:09:51.012Z,11.20
2018-09-03T13:14:41.937Z,10.57
2018-09-03T13:19:32.893Z,10.93
2018-09-03T13:24:23.775Z,11.60
2018-09-03T13:29:14.688Z,11.50
2018-09-03T13:34:05.576Z,12.50
2018-09-03T13:38:56.485Z,12.13
2018-09-03T13:43:47.380Z,12.10
2018-09-03T13:48:38.306Z,12.00
2018-09-03T13:53:29.260Z,11.20
2018-09-03T13:58:20.152Z,12.17
2018-09-03T14:03:11.803Z,12.27
2018-09-03T14:08:02.751Z,12.07
2018-09-03T14:12:53.681Z,11.53
2018-09-03T14:17:45.317Z,11.73
2018-09-03T14:22:36.787Z,11.70
2018-09-03T14:27:28.433Z,11.10
2018-09-03T14:32:21.772Z,12.00
2018-09-03T14:37:12.669Z,11.47
2018-09-03T14:42:03.701Z,11.00
2018-09-03T14:46:56.097Z,10.83
2018-09-03T14:51:48.114Z,12.00
2018-09-03T14:56:39.039Z,11.40
2018-09-03T15:01:31.653Z,10.90
2018-09-03T15:06:23.326Z,12.23
2018-09-03T15:11:14.228Z,10.97
2018-09-03T15:16:05.153Z,11.10
2018-09-03T15:20:56.056Z,12.13
2018-09-03T15:25:46.973Z,11.07
2018-09-03T15:30:38.321Z,11.70
2018-09-03T15:35:29.240Z,11.30
2018-09-03T15:40:20.877Z,11.07
2018-09-03T15:45:11.782Z,11.40
2018-09-03T15:50:02.741Z,11.07
2018-09-03T15:54:53.649Z,10.83
2018-09-03T15:59:44.580Z,11.50
2018-09-03T16:04:39.032Z,10.83
2018-09-03T16:09:30.281Z,10.70
2018-09-03T16:14:21.176Z,10.63
2018-09-03T16:19:12.080Z,10.53
2018-09-03T16:24:03.287Z,10.67
2018-09-03T16:28:54.181Z,10.93
2018-09-03T16:33:45.113Z,11.17
2018-09-03T16:38:38.188Z,10.20
2018-09-03T16:43:29.889Z,10.30
2018-09-03T16:48:20.792Z,10.43
2018-09-03T16:53:12.714Z,11.00
2018-09-03T16:58:05.181Z,11.63
2018-09-03T17:02:56.093Z,10.87
2018-09-03T17:07:47.824Z,10.97
2018-09-03T17:12:38.684Z,10.17
2018-09-03T17:17:29.589Z,10.53
2018-09-03T17:22:20.491Z,10.00
2018-09-03T17:27:12.649Z,11.37
2018-09-03T17:32:05.045Z,11.07
2018-09-03T17:36:55.960Z,10.77
2018-09-03T17:41:46.883Z,10.00
2018-09-03T17:46:37.824Z,9.63
2018-09-03T17:51:28.741Z,10.43
2018-09-03T17:56:20.414Z,10.23
2018-09-03T18:01:12.076Z,10.73
2018-09-03T18:06:05.018Z,10.20
2018-09-03T18:10:56.444Z,10.70
2018-09-03T18:15:47.360Z,9.47
2018-09-03T18:20:38.261Z,9.90
2018-09-03T18:25:29.163Z,9.83
2018-09-03T18:30:20.182Z,8.87
2018-09-03T18:35:11.722Z,8.20
2018-09-03T18:40:02.864Z,8.50
2018-09-03T18:44:53.765Z,8.73
2018-09-03T18:49:44.657Z,9.13
2018-09-03T18:54:36.354Z,8.60
2018-09-03T18:59:27.990Z,8.50
2018-09-03T19:04:18.873Z,8.93
2018-09-03T19:09:13.357Z,7.83
2018-09-03T19:14:05.039Z,8.00
2018-09-03T19:18:56.736Z,7.80
2018-09-03T19:23:47.627Z,7.80
2018-09-03T19:28:38.558Z,7.83
2018-09-03T19:33:30.197Z,8.60
2018-09-03T19:38:21.128Z,7.90
2018-09-03T19:43:12.853Z,8.33
2018-09-03T19:48:03.827Z,8.23
2018-09-03T19:52:55.521Z,8.30
2018-09-03T19:57:46.508Z,7.23
2018-09-03T20:02:38.321Z,8.43
2018-09-03T20:07:29.296Z,7.63
2018-09-03T20:12:22.089Z,7.50
2018-09-03T20:17:13.126Z,8.43
2018-09-03T20:22:04.029Z,8.90
2018-09-03T20:26:55.027Z,8.50
2018-09-03T20:31:45.964Z,7.67
2018-09-03T20:36:37.670Z,7.47
2018-09-03T20:41:28.637Z,7.83
2018-09-03T20:46:19.614Z,7.50
2018-09-03T20:51:12.403Z,7.60
2018-09-03T20:56:04.089Z,8.93
2018-09-03T21:00:55.785Z,8.23
2018-09-03T21:05:48.428Z,8.00
2018-09-03T21:10:39.483Z,8.10
2018-09-03T21:15:30.440Z,7.23
2018-09-03T21:20:22.105Z,8.20
2018-09-03T21:25:13.144Z,7.77
2018-09-03T21:30:04.090Z,7.73
2018-09-03T21:34:56.155Z,7.90
2018-09-03T21:39:47.049Z,8.43
2018-09-03T21:44:40.810Z,8.50
2018-09-03T21:49:31.720Z,6.93
2018-09-03T21:54:22.651Z,7.73
2018-09-03T21:59:13.555Z,7.30
2018-09-03T22:04:04.443Z,7.37
2018-09-03T22:08:55.371Z,7.03
2018-09-03T22:13:46.258Z,7.33
2018-09-03T22:18:37.176Z,7.10
2018-09-03T22:23:28.107Z,7.17
2018-09-03T22:28:19.028Z,6.70
2018-09-03T22:33:09.937Z,6.00
2018-09-03T22:38:00.880Z,6.43
2018-09-03T22:42:51.763Z,6.10
2018-09-03T22:47:42.684Z,6.20
2018-09-03T22:52:33.596Z,6.30
2018-09-03T22:57:24.503Z,6.40
2018-09-03T23:02:16.154Z,5.83
2018-09-03T23:07:07.064Z,6.50
2018-09-03T23:11:57.977Z,5.97
2018-09-03T23:16:48.872Z,6.13
2018-09-03T23:21:39.764Z,7.13
2018-09-03T23:26:30.654Z,5.77
2018-09-03T23:31:21.550Z,6.30
2018-09-03T23:36:12.444Z,6.07
2018-09-03T23:41:04.073Z,6.10
2018-09-03T23:45:54.984Z,5.40
2018-09-03T23:50:45.904Z,5.80
2018-09-03T23:55:36.800Z,6.10
